createdAt,value
2022-12-01T00:00:58.732Z,29.75
2022-12-01T00:03:29.580Z,29.33
2022-12-01T00:06:08.924Z,30.67
2022-12-01T00:08:39.299Z,29.15
2022-12-01T00:11:09.734Z,32.53
2022-12-01T00:13:40.485Z,31.73
2022-12-01T00:16:16.304Z,34.17
2022-12-01T00:18:47.355Z,32.58
2022-12-01T00:21:23.475Z,32.95
2022-12-01T00:23:57.200Z,31.33
2022-12-01T00:26:29.070Z,35.53
2022-12-01T00:29:02.156Z,34.58
2022-12-01T00:31:32.386Z,34.03
2022-12-01T00:34:05.725Z,35.30
2022-12-01T00:36:42.754Z,37.00
2022-12-01T00:39:13.176Z,36.42
2022-12-01T00:41:45.184Z,33.17
2022-12-01T00:44:15.529Z,33.37
2022-12-01T00:46:45.885Z,39.33
2022-12-01T00:49:17.113Z,38.73
2022-12-01T00:54:20.136Z,36.28
2022-12-01T00:56:51.083Z,44.63
2022-12-01T00:59:21.481Z,47.08
2022-12-01T01:01:51.762Z,50.73
2022-12-01T01:04:22.428Z,49.50
2022-12-01T01:06:55.465Z,52.95
2022-12-01T01:09:26.063Z,49.22
2022-12-01T01:11:57.323Z,52.22
2022-12-01T01:16:57.752Z,58.33
2022-12-01T01:19:27.991Z,57.87
2022-12-01T01:22:00.935Z,59.83
2022-12-01T01:24:31.162Z,60.30
2022-12-01T01:27:01.484Z,60.87
2022-12-01T01:29:31.782Z,62.87
2022-12-01T01:32:02.066Z,62.00
2022-12-01T01:34:32.612Z,65.87
2022-12-01T01:37:05.618Z,64.03
2022-12-01T01:39:35.881Z,68.20
2022-12-01T01:42:06.133Z,64.93
2022-12-01T01:44:55.830Z,72.60
2022-12-01T01:47:31.488Z,73.17
2022-12-01T01:50:08.521Z,69.23
2022-12-01T01:52:47.158Z,69.47
2022-12-01T01:55:18.700Z,68.30
2022-12-01T01:57:49.640Z,72.40
2022-12-01T02:00:22.783Z,71.90
2022-12-01T02:02:54.461Z,70.93
2022-12-01T02:05:28.108Z,65.13
2022-12-01T02:08:02.680Z,93.90
2022-12-01T02:10:46.748Z,71.07
2022-12-01T02:13:30.624Z,67.77
2022-12-01T02:16:14.084Z,67.67
2022-12-01T02:18:55.482Z,64.13
2022-12-01T02:24:51.240Z,70.20
2022-12-01T02:27:34.622Z,67.13
2022-12-01T02:30:13.400Z,68.97
2022-12-01T02:33:07.247Z,71.83
2022-12-01T02:35:46.701Z,63.37
2022-12-01T02:38:26.844Z,66.43
2022-12-01T02:41:04.701Z,66.87
2022-12-01T02:43:42.507Z,76.67
2022-12-01T02:46:35.647Z,66.73
2022-12-01T02:49:14.844Z,67.43
2022-12-01T02:51:47.572Z,57.83
2022-12-01T02:54:18.924Z,59.07
2022-12-01T02:56:49.245Z,57.97
2022-12-01T02:59:19.540Z,66.87
2022-12-01T03:02:10.429Z,58.53
2022-12-01T03:05:07.823Z,56.30
2022-12-01T03:07:54.902Z,53.23
2022-12-01T03:10:33.948Z,59.63
2022-12-01T03:13:15.088Z,55.00
2022-12-01T03:15:57.002Z,55.72
2022-12-01T03:18:36.438Z,55.57
2022-12-01T03:21:17.239Z,57.53
2022-12-01T03:23:51.997Z,57.47
2022-12-01T03:26:25.752Z,56.17
2022-12-01T03:29:01.869Z,53.13
2022-12-01T03:31:39.565Z,57.93
2022-12-01T03:34:15.962Z,63.93
2022-12-01T03:36:53.819Z,54.57
2022-12-01T03:39:28.998Z,55.43
2022-12-01T03:42:05.753Z,49.10
2022-12-01T03:44:43.366Z,53.07
2022-12-01T03:47:18.215Z,50.27
2022-12-01T03:49:51.014Z,50.97
2022-12-01T03:52:39.607Z,47.10
2022-12-01T03:55:15.843Z,53.93
2022-12-01T03:57:52.940Z,52.67
2022-12-01T04:00:23.722Z,46.17
2022-12-01T04:02:59.113Z,50.35
2022-12-01T04:05:30.487Z,51.03
2022-12-01T04:08:04.192Z,51.97
2022-12-01T04:10:34.546Z,49.10
2022-12-01T04:13:02.190Z,50.23
2022-12-01T04:15:32.744Z,52.40
2022-12-01T04:18:03.528Z,52.40
2022-12-01T04:20:33.867Z,54.90
2022-12-01T04:23:06.748Z,53.90
2022-12-01T04:25:37.008Z,53.00
2022-12-01T04:28:07.834Z,50.63
2022-12-01T04:30:38.181Z,48.90
2022-12-01T04:33:08.445Z,51.33
2022-12-01T04:35:38.785Z,49.07
2022-12-01T04:38:11.837Z,54.67
2022-12-01T04:40:42.394Z,49.10
2022-12-01T04:43:12.752Z,44.83
2022-12-01T04:45:42.983Z,46.27
2022-12-01T04:48:13.249Z,50.55
2022-12-01T04:50:44.319Z,44.53
2022-12-01T04:53:17.262Z,44.72
2022-12-01T04:55:47.555Z,45.93
2022-12-01T04:58:17.921Z,46.77
2022-12-01T05:00:48.309Z,44.23
2022-12-01T05:03:18.691Z,41.17
2022-12-01T05:05:49.159Z,44.60
2022-12-01T05:08:22.041Z,42.03
2022-12-01T05:10:52.275Z,43.37
2022-12-01T05:13:22.688Z,45.77
2022-12-01T05:15:53.138Z,48.10
2022-12-01T05:18:23.690Z,40.75
2022-12-01T05:20:57.444Z,42.63
2022-12-01T05:23:32.714Z,46.67
2022-12-01T05:26:03.430Z,46.77
2022-12-01T05:28:34.061Z,48.55
2022-12-01T05:31:04.953Z,47.60
2022-12-01T05:33:35.286Z,47.65
2022-12-01T05:36:05.616Z,46.17
2022-12-01T05:38:38.509Z,47.53
2022-12-01T05:41:08.964Z,49.60
2022-12-01T05:43:39.233Z,45.87
2022-12-01T05:46:09.622Z,48.30
2022-12-01T05:48:40.104Z,46.17
2022-12-01T05:51:15.706Z,52.60
2022-12-01T05:53:49.053Z,46.50
2022-12-01T05:56:19.407Z,47.73
2022-12-01T05:58:50.026Z,45.80
2022-12-01T06:01:20.503Z,43.85
2022-12-01T06:03:51.034Z,47.67
2022-12-01T06:06:21.358Z,45.38
2022-12-01T06:08:54.243Z,44.90
2022-12-01T06:11:24.811Z,45.07
2022-12-01T06:13:55.252Z,47.35
2022-12-01T06:16:25.689Z,46.83
2022-12-01T06:18:56.052Z,48.88
2022-12-01T06:21:26.352Z,44.33
2022-12-01T06:23:59.295Z,49.10
2022-12-01T06:26:29.638Z,46.47
2022-12-01T06:29:00.358Z,45.47
2022-12-01T06:31:30.839Z,49.38
2022-12-01T06:34:01.255Z,46.97
2022-12-01T06:36:31.481Z,54.20
2022-12-01T06:39:04.375Z,53.07
2022-12-01T06:41:35.374Z,52.97
2022-12-01T06:44:05.769Z,51.20
2022-12-01T06:46:36.173Z,53.37
2022-12-01T06:49:06.987Z,55.60
2022-12-01T06:51:37.330Z,52.20
2022-12-01T06:54:10.595Z,52.73
2022-12-01T06:56:40.913Z,53.87
2022-12-01T06:59:11.768Z,60.53
2022-12-01T07:01:42.444Z,52.58
2022-12-01T07:04:12.960Z,53.47
2022-12-01T07:06:43.207Z,52.50
2022-12-01T07:09:16.244Z,50.57
2022-12-01T07:11:46.487Z,52.77
2022-12-01T07:14:23.468Z,51.63
2022-12-01T07:16:54.220Z,55.60
2022-12-01T07:19:24.684Z,54.90
2022-12-01T07:21:54.957Z,50.63
2022-12-01T07:24:27.896Z,49.77
2022-12-01T07:26:58.129Z,46.60
2022-12-01T07:29:28.463Z,48.90
2022-12-01T07:31:58.669Z,51.57
2022-12-01T07:34:29.000Z,47.07
2022-12-01T07:36:59.415Z,49.70
2022-12-01T07:39:32.474Z,46.13
2022-12-01T07:42:02.734Z,47.20
2022-12-01T07:44:33.052Z,42.43
2022-12-01T07:47:03.339Z,46.10
2022-12-01T07:49:34.397Z,46.00
2022-12-01T07:52:04.822Z,45.67
2022-12-01T07:54:37.704Z,46.50
2022-12-01T07:57:08.145Z,47.07
2022-12-01T07:59:38.436Z,44.97
2022-12-01T08:02:09.319Z,48.07
2022-12-01T08:04:39.715Z,46.92
2022-12-01T08:07:15.851Z,49.20
2022-12-01T08:09:49.054Z,46.80
2022-12-01T08:12:19.945Z,45.90
2022-12-01T08:14:50.251Z,44.25
2022-12-01T08:17:20.492Z,39.80
2022-12-01T08:19:51.028Z,51.43
2022-12-01T08:22:21.852Z,47.38
2022-12-01T08:24:54.845Z,40.60
2022-12-01T08:27:25.183Z,44.20
2022-12-01T08:29:55.489Z,43.23
2022-12-01T08:32:25.914Z,42.43
2022-12-01T08:34:56.167Z,45.87
2022-12-01T08:37:26.419Z,44.10
2022-12-01T08:39:59.317Z,44.70
2022-12-01T08:42:29.669Z,41.40
2022-12-01T08:45:00.002Z,44.33
2022-12-01T08:47:31.665Z,44.40
2022-12-01T08:50:01.937Z,38.92
2022-12-01T08:52:35.706Z,42.07
2022-12-01T08:55:10.941Z,38.45
2022-12-01T08:57:41.201Z,37.88
2022-12-01T09:00:13.502Z,38.92
2022-12-01T09:02:43.804Z,35.15
2022-12-01T09:05:14.223Z,35.23
2022-12-01T09:08:05.377Z,37.58
2022-12-01T09:10:40.691Z,34.63
2022-12-01T09:13:10.962Z,36.50
2022-12-01T09:15:41.267Z,41.17
2022-12-01T09:18:11.610Z,36.47
2022-12-01T09:20:41.843Z,40.80
2022-12-01T09:23:12.203Z,38.80
2022-12-01T09:25:45.129Z,38.07
2022-12-01T09:28:15.449Z,37.95
2022-12-01T09:30:45.751Z,38.20
2022-12-01T09:33:16.720Z,37.73
2022-12-01T09:35:47.101Z,34.60
2022-12-01T09:38:17.425Z,35.63
2022-12-01T09:40:50.321Z,37.20
2022-12-01T09:43:25.759Z,37.33
2022-12-01T09:46:07.747Z,39.55
2022-12-01T09:48:45.729Z,36.38
2022-12-01T09:51:17.967Z,34.95
2022-12-01T09:53:48.889Z,38.00
2022-12-01T09:56:26.838Z,42.85
2022-12-01T09:59:00.822Z,44.78
2022-12-01T10:01:37.599Z,42.05
2022-12-01T10:04:14.888Z,45.75
2022-12-01T10:06:52.033Z,48.05
2022-12-01T10:09:28.839Z,42.83
2022-12-01T10:12:10.703Z,43.55
2022-12-01T10:14:40.988Z,44.55
2022-12-01T10:17:27.292Z,47.30
2022-12-01T10:20:05.926Z,42.42
2022-12-01T10:22:57.634Z,47.22
2022-12-01T10:25:30.141Z,43.05
2022-12-01T10:28:44.837Z,45.72
2022-12-01T10:31:25.615Z,44.75
2022-12-01T10:34:04.840Z,42.58
2022-12-01T10:36:36.819Z,44.70
2022-12-01T10:39:09.718Z,47.10
2022-12-01T10:41:42.451Z,47.42
2022-12-01T10:44:16.268Z,42.30
2022-12-01T10:46:52.392Z,41.92
2022-12-01T10:49:23.587Z,38.50
2022-12-01T10:51:57.852Z,36.90
2022-12-01T10:54:38.531Z,45.00
2022-12-01T10:57:10.947Z,44.67
2022-12-01T10:59:53.802Z,43.60
2022-12-01T11:02:26.732Z,41.97
2022-12-01T11:05:01.431Z,41.92
2022-12-01T11:07:35.737Z,41.95
2022-12-01T11:10:19.435Z,41.35
2022-12-01T11:12:58.517Z,44.58
2022-12-01T11:15:35.751Z,48.25
2022-12-01T11:18:10.187Z,49.47
2022-12-01T11:20:43.469Z,53.92
2022-12-01T11:23:29.960Z,58.17
2022-12-01T11:26:09.563Z,51.03
2022-12-01T11:28:44.539Z,51.05
2022-12-01T11:31:17.821Z,47.80
2022-12-01T11:33:53.626Z,48.20
2022-12-01T11:36:32.844Z,49.70
2022-12-01T11:39:05.502Z,43.55
2022-12-01T11:41:40.468Z,51.05
2022-12-01T11:44:49.746Z,46.55
2022-12-01T11:47:23.961Z,49.90
2022-12-01T11:49:59.748Z,53.45
2022-12-01T11:52:34.803Z,54.53
2022-12-01T11:55:23.209Z,54.80
2022-12-01T11:57:57.429Z,53.22
2022-12-01T12:00:32.077Z,51.47
2022-12-01T12:03:21.744Z,49.92
2022-12-01T12:06:39.552Z,54.90
2022-12-01T12:09:31.593Z,53.70
2022-12-01T12:12:17.973Z,61.45
2022-12-01T12:15:02.604Z,58.08
2022-12-01T12:18:08.613Z,62.08
2022-12-01T12:20:56.251Z,65.78
2022-12-01T12:23:50.313Z,65.55
2022-12-01T12:26:24.365Z,69.03
2022-12-01T12:29:25.302Z,67.78
2022-12-01T12:32:12.884Z,64.97
2022-12-01T12:34:55.419Z,67.85
2022-12-01T12:37:37.293Z,66.15
2022-12-01T12:40:45.332Z,75.30
2022-12-01T12:43:30.525Z,74.82
2022-12-01T12:46:08.059Z,72.88
2022-12-01T12:52:08.164Z,75.25
2022-12-01T12:54:48.083Z,77.15
2022-12-01T12:57:29.507Z,74.13
2022-12-01T13:02:41.399Z,80.28
2022-12-01T13:05:21.650Z,78.78
2022-12-01T13:08:01.159Z,86.00
2022-12-01T13:10:39.807Z,78.72
2022-12-01T13:13:24.582Z,74.80
2022-12-01T13:15:57.804Z,80.95
2022-12-01T13:18:39.768Z,79.18
2022-12-01T13:21:15.875Z,77.32
2022-12-01T13:23:50.727Z,82.05
2022-12-01T13:26:23.932Z,84.60
2022-12-01T13:28:57.587Z,72.70
2022-12-01T13:31:28.510Z,82.90
2022-12-01T13:34:03.806Z,83.75
2022-12-01T13:36:46.652Z,75.38
2022-12-01T13:39:24.173Z,76.53
2022-12-01T13:42:04.412Z,73.20
2022-12-01T13:44:42.355Z,82.57
2022-12-01T13:47:40.982Z,75.50
2022-12-01T13:51:02.565Z,86.80
2022-12-01T13:53:36.803Z,90.78
2022-12-01T13:56:41.117Z,93.53
2022-12-01T13:59:42.457Z,90.18
2022-12-01T14:02:22.195Z,82.45
2022-12-01T14:04:52.782Z,86.63
2022-12-01T14:07:30.925Z,88.97
2022-12-01T14:10:15.569Z,90.50
2022-12-01T14:12:49.565Z,93.32
2022-12-01T14:15:42.557Z,99.88
2022-12-01T14:18:38.690Z,86.80
2022-12-01T14:21:12.549Z,90.03
2022-12-01T14:24:04.499Z,88.30
2022-12-01T14:26:35.147Z,87.65
2022-12-01T14:29:34.188Z,84.22
2022-12-01T14:32:24.114Z,90.63
2022-12-01T14:35:08.387Z,89.75
2022-12-01T14:37:49.701Z,91.28
2022-12-01T14:40:31.293Z,90.70
2022-12-01T14:43:15.317Z,88.13
2022-12-01T14:45:59.767Z,84.57
2022-12-01T14:48:40.720Z,87.00
2022-12-01T14:51:27.132Z,92.63
2022-12-01T14:53:59.278Z,94.63
2022-12-01T14:56:30.743Z,86.20
2022-12-01T14:59:03.158Z,87.43
2022-12-01T15:01:39.701Z,85.65
2022-12-01T15:04:10.276Z,84.25
2022-12-01T15:06:41.324Z,85.22
2022-12-01T15:09:34.153Z,78.22
2022-12-01T15:12:07.890Z,75.13
2022-12-01T15:14:40.732Z,82.43
2022-12-01T15:17:34.664Z,83.43
2022-12-01T15:20:05.649Z,82.00
2022-12-01T15:22:37.467Z,78.13
2022-12-01T15:25:17.110Z,75.53
2022-12-01T15:27:47.912Z,81.43
2022-12-01T15:30:19.872Z,76.15
2022-12-01T15:32:52.967Z,83.38
2022-12-01T15:35:26.080Z,88.50
2022-12-01T15:37:57.084Z,91.33
2022-12-01T15:43:25.287Z,82.72
2022-12-01T15:46:04.892Z,90.70
2022-12-01T15:48:39.786Z,91.20
2022-12-01T15:51:19.373Z,83.33
2022-12-01T15:53:53.896Z,87.73
2022-12-01T15:56:30.698Z,83.93
2022-12-01T15:59:10.670Z,84.47
2022-12-01T16:01:42.561Z,97.37
2022-12-01T16:04:24.281Z,99.07
2022-12-01T16:07:00.754Z,95.40
2022-12-01T16:09:35.757Z,98.90
2022-12-01T16:12:22.992Z,97.40
2022-12-01T16:14:58.340Z,100.17
2022-12-01T16:17:30.668Z,105.73
2022-12-01T16:20:25.777Z,109.77
2022-12-01T16:23:02.671Z,105.03
2022-12-01T16:25:43.588Z,100.73
2022-12-01T16:28:24.549Z,94.78
2022-12-01T16:30:55.996Z,95.20
2022-12-01T16:33:29.056Z,98.33
2022-12-01T16:36:03.239Z,94.40
2022-12-01T16:38:34.616Z,90.67
2022-12-01T16:41:18.235Z,94.30
2022-12-01T16:44:26.425Z,99.10
2022-12-01T16:46:45.062Z,90.70
2022-12-01T16:49:15.414Z,96.13
2022-12-01T16:51:57.095Z,95.53
2022-12-01T16:54:28.444Z,99.70
2022-12-01T16:56:58.760Z,87.10
2022-12-01T16:59:31.030Z,97.63
2022-12-01T17:02:01.503Z,93.07
2022-12-01T17:04:31.838Z,94.45
2022-12-01T17:07:04.847Z,94.37
2022-12-01T17:09:35.265Z,100.57
2022-12-01T17:12:05.842Z,99.47
2022-12-01T17:14:36.278Z,91.95
2022-12-01T17:19:37.995Z,86.97
2022-12-01T17:22:11.062Z,85.80
2022-12-01T17:24:41.598Z,94.07
2022-12-01T17:27:11.934Z,87.25
2022-12-01T17:29:46.071Z,96.63
2022-12-01T17:32:16.813Z,97.07
2022-12-01T17:34:47.739Z,86.50
2022-12-01T17:37:21.510Z,93.75
2022-12-01T17:39:52.724Z,90.63
2022-12-01T17:42:23.084Z,93.47
2022-12-01T17:44:53.405Z,92.50
2022-12-01T17:47:26.211Z,91.07
2022-12-01T17:49:56.522Z,94.90
2022-12-01T17:52:30.029Z,97.77
2022-12-01T17:55:00.399Z,96.33
2022-12-01T17:57:33.685Z,91.13
2022-12-01T18:00:04.991Z,90.77
2022-12-01T18:02:38.897Z,92.07
2022-12-01T18:05:11.433Z,93.23
2022-12-01T18:07:44.470Z,92.43
2022-12-01T18:10:15.020Z,88.33
2022-12-01T18:12:45.355Z,93.68
2022-12-01T18:15:17.434Z,81.70
2022-12-01T18:17:48.573Z,89.33
2022-12-01T18:20:19.005Z,83.47
2022-12-01T18:22:52.075Z,82.88
2022-12-01T18:25:22.369Z,87.40
2022-12-01T18:27:58.421Z,94.87
2022-12-01T18:30:29.669Z,98.20
2022-12-01T18:35:32.057Z,88.00
2022-12-01T18:38:05.116Z,94.67
2022-12-01T18:40:38.973Z,83.57
2022-12-01T18:43:09.395Z,90.83
2022-12-01T18:45:42.668Z,90.20
2022-12-01T18:48:12.956Z,91.27
2022-12-01T18:50:43.226Z,92.57
2022-12-01T18:53:16.215Z,94.77
2022-12-01T18:55:46.600Z,94.50
2022-12-01T18:58:19.630Z,90.57
2022-12-01T19:00:49.951Z,97.93
2022-12-01T19:03:20.260Z,92.53
2022-12-01T19:05:50.897Z,91.83
2022-12-01T19:08:23.982Z,93.03
2022-12-01T19:11:02.384Z,93.40
2022-12-01T19:13:35.139Z,89.53
2022-12-01T19:16:09.628Z,91.30
2022-12-01T19:18:40.623Z,87.10
2022-12-01T19:21:14.981Z,97.20
2022-12-01T19:23:49.006Z,93.83
2022-12-01T19:26:22.041Z,92.20
2022-12-01T19:28:52.816Z,89.43
2022-12-01T19:31:26.103Z,83.03
2022-12-01T19:33:57.981Z,82.40
2022-12-01T19:36:31.135Z,78.03
2022-12-01T19:39:07.494Z,79.97
2022-12-01T19:41:40.352Z,78.47
2022-12-01T19:44:11.666Z,82.38
2022-12-01T19:46:42.202Z,77.93
2022-12-01T19:49:13.508Z,81.65
2022-12-01T19:51:44.119Z,77.97
2022-12-01T19:54:19.848Z,82.07
2022-12-01T19:56:50.223Z,78.83
2022-12-01T19:59:20.531Z,83.43
2022-12-01T20:01:50.888Z,85.17
2022-12-01T20:04:21.283Z,80.53
2022-12-01T20:06:51.622Z,82.40
2022-12-01T20:09:24.783Z,85.73
2022-12-01T20:11:56.232Z,80.33
2022-12-01T20:14:26.565Z,80.70
2022-12-01T20:16:58.221Z,88.07
2022-12-01T20:19:28.621Z,78.07
2022-12-01T20:21:58.989Z,84.10
2022-12-01T20:24:32.212Z,85.67
2022-12-01T20:27:02.744Z,89.17
2022-12-01T20:29:33.757Z,79.75
2022-12-01T20:32:05.737Z,78.85
2022-12-01T20:34:38.995Z,84.20
2022-12-01T20:37:09.268Z,79.13
2022-12-01T20:39:42.218Z,92.03
2022-12-01T20:42:13.419Z,92.47
2022-12-01T20:44:43.834Z,82.10
2022-12-01T20:47:14.745Z,88.83
2022-12-01T20:49:45.280Z,83.20
2022-12-01T20:52:15.637Z,84.20
2022-12-01T20:54:49.062Z,84.50
2022-12-01T20:57:19.578Z,83.53
2022-12-01T20:59:49.890Z,86.40
2022-12-01T21:02:20.218Z,88.53
2022-12-01T21:04:52.274Z,86.03
2022-12-01T21:07:24.600Z,85.17
2022-12-01T21:09:57.568Z,80.33
2022-12-01T21:12:40.814Z,87.60
2022-12-01T21:15:23.788Z,90.83
2022-12-01T21:17:59.955Z,89.13
2022-12-01T21:20:36.060Z,81.37
2022-12-01T21:23:13.732Z,83.93
2022-12-01T21:25:48.027Z,85.07
2022-12-01T21:28:22.515Z,80.10
2022-12-01T21:31:10.246Z,79.20
2022-12-01T21:33:41.901Z,76.77
2022-12-01T21:36:19.287Z,76.83
2022-12-01T21:38:53.149Z,78.40
2022-12-01T21:41:29.642Z,77.87
2022-12-01T21:44:07.629Z,74.90
2022-12-01T21:46:41.267Z,82.47
2022-12-01T21:49:22.930Z,71.33
2022-12-01T21:51:55.607Z,75.50
2022-12-01T21:54:28.930Z,74.07
2022-12-01T21:57:01.954Z,73.37
2022-12-01T21:59:32.297Z,74.43
2022-12-01T22:02:04.166Z,75.90
2022-12-01T22:04:35.809Z,68.57
2022-12-01T22:07:06.311Z,72.23
2022-12-01T22:09:39.171Z,76.80
2022-12-01T22:12:25.919Z,72.33
2022-12-01T22:15:03.239Z,68.93
2022-12-01T22:17:33.916Z,71.43
2022-12-01T22:20:05.435Z,77.25
2022-12-01T22:22:36.715Z,70.03
2022-12-01T22:27:56.053Z,69.80
2022-12-01T22:30:27.516Z,80.10
2022-12-01T22:33:00.391Z,75.60
2022-12-01T22:35:35.361Z,78.27
2022-12-01T22:38:37.855Z,76.80
2022-12-01T22:41:12.150Z,79.83
2022-12-01T22:43:49.856Z,78.03
2022-12-01T22:46:30.721Z,80.70
2022-12-01T22:49:03.478Z,82.13
2022-12-01T22:51:50.520Z,82.40
2022-12-01T22:54:32.086Z,81.10
2022-12-01T22:57:28.024Z,83.97
2022-12-01T23:00:01.144Z,83.07
2022-12-01T23:02:36.984Z,81.77
2022-12-01T23:05:25.968Z,83.17
2022-12-01T23:07:58.156Z,85.60
2022-12-01T23:10:33.077Z,86.80
2022-12-01T23:13:15.256Z,83.70
2022-12-01T23:15:50.676Z,86.90
2022-12-01T23:18:25.268Z,80.97
2022-12-01T23:20:58.155Z,86.10
2022-12-01T23:23:31.505Z,84.10
2022-12-01T23:26:04.832Z,87.03
2022-12-01T23:28:35.646Z,76.13
2022-12-01T23:31:09.041Z,83.90
2022-12-01T23:33:39.811Z,85.97
2022-12-01T23:36:18.914Z,89.15
2022-12-01T23:38:52.046Z,93.33
2022-12-01T23:41:27.961Z,85.13
2022-12-01T23:44:02.120Z,92.67
2022-12-01T23:46:36.032Z,96.93
2022-12-01T23:49:17.304Z,93.77
2022-12-01T23:51:50.898Z,96.13
2022-12-01T23:54:25.364Z,88.03
2022-12-01T23:56:58.455Z,89.67
2022-12-01T23:59:29.025Z,89.93
